Time;durP1;ratioP1;P1;durP2;ratioP2;P2;SDS_P1;SDS_P2;PMS_P1;PMS_P2;Temp;Humidity;BMP_temperature;BMP_pressure;BME280_temperature;BME280_humidity;BME280_pressure;Samples;Min_cycle;Max_cycle;Signal;HPM_P1;HPM_P2
2022/12/03 00:00:18;;;;;;;;;;;;;;;1.78;100.00;102415.44;5053729;28;19939;-54
2022/12/03 00:02:43;;;;;;;;;;;;;;;1.78;100.00;102409.38;5054058;28;19917;-57
2022/12/03 00:05:09;;;;;;;;;;;;;;;1.76;100.00;102405.84;5053455;28;20290;-57
2022/12/03 00:07:34;;;;;;;;;;;;;;;1.74;100.00;102408.41;5052052;28;19967;-55
2022/12/03 00:09:59;;;;;;;;;;;;;;;1.74;100.00;102411.00;5053368;28;20323;-57
2022/12/03 00:12:24;;;;;;;;;;;;;;;1.74;100.00;102395.44;5051986;28;19913;-56
2022/12/03 00:14:49;;;;;;;;;;;;;;;1.75;100.00;102399.81;5053088;28;19920;-54
2022/12/03 00:17:15;;;;;;;;;;;;;;;1.75;100.00;102399.81;5049610;28;19912;-51
2022/12/03 00:19:40;;;;;;;;;;;;;;;1.76;100.00;102408.44;5073294;28;19935;-56
2022/12/03 00:22:05;;;;;;;;;;;;;;;1.70;100.00;102403.97;5056065;28;19943;-55
2022/12/03 00:24:30;;;;;;;;;;;;;;;1.70;100.00;102396.19;5056095;28;19916;-56
2022/12/03 00:26:56;;;;;;;;;;;;;;;1.72;100.00;102391.94;5073714;28;19920;-56
2022/12/03 00:29:21;;;;;;;;;;;;;;;1.73;100.00;102387.59;5073882;28;20393;-52
2022/12/03 00:31:46;;;;;;;;;;;;;;;1.71;100.00;102395.34;5055268;28;19921;-52
2022/12/03 00:34:11;;;;;;;;;;;;;;;1.69;100.00;102379.72;5074042;28;19917;-55
2022/12/03 00:36:37;;;;;;;;;;;;;;;1.65;100.00;102388.28;5074042;28;20278;-55
2022/12/03 00:39:02;;;;;;;;;;;;;;;1.68;100.00;102379.69;5073754;28;20054;-53
2022/12/03 00:41:27;;;;;;;;;;;;;;;1.64;100.00;102383.91;5055440;28;19912;-57
2022/12/03 00:43:56;;;;;;;;;;;;;;;1.62;100.00;102388.19;5073623;28;19916;-57
2022/12/03 00:46:21;;;;;;;;;;;;;;;1.62;100.00;102388.19;5073655;28;19924;-53
2022/12/03 00:48:47;;;;;;;;;;;;;;;1.61;100.00;102386.41;5073650;28;19916;-56
2022/12/03 00:51:12;;;;;;;;;;;;;;;1.60;100.00;102386.38;5073811;28;19952;-54
2022/12/03 00:53:37;;;;;;;;;;;;;;;1.62;100.00;102388.19;5055523;28;19923;-55
2022/12/03 00:56:02;;;;;;;;;;;;;;;1.63;100.00;102400.31;5073424;28;19923;-54
2022/12/03 00:58:28;;;;;;;;;;;;;;;1.63;100.00;102396.84;5073560;28;20382;-58
2022/12/03 01:00:53;;;;;;;;;;;;;;;1.61;100.00;102391.59;5073231;28;20294;-55
2022/12/03 01:03:18;;;;;;;;;;;;;;;1.62;100.00;102383.00;5073418;28;19927;-53
2022/12/03 01:05:43;;;;;;;;;;;;;;;1.64;100.00;102376.13;5073376;28;19916;-56
2022/12/03 01:08:09;;;;;;;;;;;;;;;1.67;100.00;102380.50;5073135;28;20365;-56
2022/12/03 01:10:34;;;;;;;;;;;;;;;1.74;100.00;102376.38;5055076;28;19916;-57
2022/12/03 01:12:59;;;;;;;;;;;;;;;1.70;100.00;102380.59;5073409;28;20436;-56
2022/12/03 01:15:24;;;;;;;;;;;;;;;1.69;100.00;102374.53;5073288;28;19916;-58
2022/12/03 01:17:50;;;;;;;;;;;;;;;1.72;100.00;102370.28;5072990;28;19916;-55
2022/12/03 01:20:15;;;;;;;;;;;;;;;1.72;100.00;102367.69;5072880;28;19912;-56
2022/12/03 01:22:40;;;;;;;;;;;;;;;1.72;100.00;102367.69;5073100;28;19923;-53
2022/12/03 01:25:06;;;;;;;;;;;;;;;1.73;100.00;102359.91;5054679;28;19966;-55
2022/12/03 01:27:31;;;;;;;;;;;;;;;1.74;100.00;102366.88;5073387;28;19916;-56
2022/12/03 01:29:56;;;;;;;;;;;;;;;1.75;100.00;102358.28;5072910;28;19920;-55
2022/12/03 01:32:21;;;;;;;;;;;;;;;1.74;100.00;102359.09;5072856;28;19989;-55
2022/12/03 01:34:51;;;;;;;;;;;;;;;1.75;100.00;102368.66;5072718;28;19920;-54
2022/12/03 01:37:17;;;;;;;;;;;;;;;1.76;100.00;102360.00;5072970;28;20270;-55
2022/12/03 01:39:42;;;;;;;;;;;;;;;1.77;100.00;102373.88;5072720;28;19995;-56
2022/12/03 01:42:10;;;;;;;;;;;;;;;1.74;100.00;102366.88;5073002;28;19914;-55
2022/12/03 01:44:35;;;;;;;;;;;;;;;1.78;100.00;102362.66;5072357;28;19952;-58
2022/12/03 01:47:02;;;;;;;;;;;;;;;1.76;100.00;102364.31;5054747;28;19958;-51
2022/12/03 01:49:29;;;;;;;;;;;;;;;1.75;100.00;102359.97;5072620;28;19912;-57
2022/12/03 01:51:54;;;;;;;;;;;;;;;1.75;100.00;102355.69;5072342;28;19920;-53
2022/12/03 01:54:20;;;;;;;;;;;;;;;1.76;100.00;102351.34;5072266;28;19923;-57
2022/12/03 01:56:45;;;;;;;;;;;;;;;1.77;100.00;102348.78;5072668;28;19912;-55
2022/12/03 01:59:15;;;;;;;;;;;;;;;1.79;100.00;102360.09;5054367;28;20381;-53
2022/12/03 02:01:40;;;;;;;;;;;;;;;1.82;100.00;102347.19;5072381;28;19923;-57
2022/12/03 02:04:05;;;;;;;;;;;;;;;1.81;100.00;102345.41;5072201;28;19920;-54
2022/12/03 02:06:30;;;;;;;;;;;;;;;1.79;100.00;102347.13;5054276;28;19999;-55
2022/12/03 02:08:58;;;;;;;;;;;;;;;1.78;100.00;102344.50;5072156;28;19924;-56
2022/12/03 02:11:27;;;;;;;;;;;;;;;1.75;100.00;102345.28;5072357;28;19970;-57
2022/12/03 02:13:58;;;;;;;;;;;;;;;1.76;100.00;102347.03;5072160;28;19944;-57
2022/12/03 02:16:23;;;;;;;;;;;;;;;1.73;100.00;102354.72;5071981;28;19916;-57
2022/12/03 02:18:49;;;;;;;;;;;;;;;1.73;100.00;102352.13;5071815;28;20427;-52
2022/12/03 02:21:24;;;;;;;;;;;;;;;1.73;100.00;102354.72;5072054;28;19916;-57
2022/12/03 02:24:08;;;;;;;;;;;;;;;1.71;100.00;102346.03;5053897;28;19912;-55
2022/12/03 02:26:33;;;;;;;;;;;;;;;1.72;100.00;102334.81;5072217;28;19912;-56
2022/12/03 02:28:58;;;;;;;;;;;;;;;1.71;100.00;102338.25;5053926;28;19912;-54
2022/12/03 02:31:24;;;;;;;;;;;;;;;1.67;100.00;102355.44;5071884;28;19927;-57
2022/12/03 02:33:49;;;;;;;;;;;;;;;1.69;100.00;102347.72;5053703;28;20038;-56
2022/12/03 02:36:14;;;;;;;;;;;;;;;1.71;100.00;102340.84;5073817;28;19995;-56
2022/12/03 02:38:40;;;;;;;;;;;;;;;1.73;100.00;102343.47;5075875;28;19918;-51
2022/12/03 02:41:06;;;;;;;;;;;;;;;1.76;100.00;102340.94;5075877;28;19916;-57
2022/12/03 02:43:31;;;;;;;;;;;;;;;1.75;100.00;102341.81;5075863;28;19961;-51
2022/12/03 02:45:57;;;;;;;;;;;;;;;1.76;100.00;102338.34;5075332;28;19916;-55
2022/12/03 02:48:22;;;;;;;;;;;;;;;1.77;100.00;102330.63;5076319;28;19919;-58
2022/12/03 02:50:52;;;;;;;;;;;;;;;1.79;100.00;102330.66;5075823;28;19912;-55
2022/12/03 02:53:22;;;;;;;;;;;;;;;1.78;100.00;102321.13;5075395;28;19912;-55
2022/12/03 02:55:47;;;;;;;;;;;;;;;1.81;100.00;102329.00;5058500;28;19916;-56
2022/12/03 02:58:13;;;;;;;;;;;;;;;1.82;100.00;102329.03;5057997;28;19912;-52
2022/12/03 03:00:38;;;;;;;;;;;;;;;1.82;100.00;102322.94;5057771;28;20296;-54
2022/12/03 03:03:03;;;;;;;;;;;;;;;1.81;100.00;102310.81;5075293;28;19969;-57
2022/12/03 03:05:29;;;;;;;;;;;;;;;1.80;100.00;102309.94;5075359;28;20001;-57
2022/12/03 03:07:55;;;;;;;;;;;;;;;1.78;100.00;102314.19;5057669;28;19920;-57
2022/12/03 03:10:21;;;;;;;;;;;;;;;1.82;100.00;102309.97;5057519;28;19919;-53
2022/12/03 03:12:46;;;;;;;;;;;;;;;1.66;100.00;102291.38;5057055;28;20389;-54
2022/12/03 03:15:12;;;;;;;;;;;;;;;1.80;100.00;102307.34;5057402;28;19943;-56
2022/12/03 03:17:37;;;;;;;;;;;;;;;1.81;100.00;102301.28;5057086;28;19912;-55
2022/12/03 03:20:03;;;;;;;;;;;;;;;1.81;100.00;102303.88;5074781;28;19960;-55
2022/12/03 03:22:30;;;;;;;;;;;;;;;1.83;100.00;102309.13;5074713;28;19916;-55
2022/12/03 03:24:55;;;;;;;;;;;;;;;1.81;100.00;102298.69;5074662;28;19920;-54
2022/12/03 03:27:21;;;;;;;;;;;;;;;1.80;100.00;102304.75;5075013;28;19920;-55
2022/12/03 03:29:46;;;;;;;;;;;;;;;1.81;100.00;102295.25;5074627;28;19928;-51
2022/12/03 03:32:11;;;;;;;;;;;;;;;1.80;100.00;102304.75;5056646;28;20268;-58
2022/12/03 03:34:36;;;;;;;;;;;;;;;1.83;100.00;102298.75;5057221;28;20377;-57
2022/12/03 03:37:02;;;;;;;;;;;;;;;1.83;100.00;102298.75;5074990;28;19919;-56
2022/12/03 03:39:27;;;;;;;;;;;;;;;1.83;100.00;102290.97;5075151;28;19959;-56
2022/12/03 03:41:52;;;;;;;;;;;;;;;1.86;100.00;102291.03;5074513;28;20402;-56
2022/12/03 03:44:17;;;;;;;;;;;;;;;1.85;100.00;102291.88;5056609;28;20297;-56
2022/12/03 03:46:43;;;;;;;;;;;;;;;1.86;100.00;102285.84;5073611;28;20371;-55
2022/12/03 03:49:09;;;;;;;;;;;;;;;1.82;100.00;102287.47;5074105;28;19916;-55
2022/12/03 03:51:35;;;;;;;;;;;;;;;1.85;100.00;102289.28;5074500;28;19916;-57
2022/12/03 03:54:00;;;;;;;;;;;;;;;1.82;100.00;102282.28;5056524;28;19916;-57
2022/12/03 03:56:25;;;;;;;;;;;;;;;1.85;100.00;102281.47;5074294;28;19916;-54
2022/12/03 03:58:50;;;;;;;;;;;;;;;1.86;100.00;102278.06;5056097;28;19912;-57
2022/12/03 04:01:16;;;;;;;;;;;;;;;1.90;100.00;102277.31;5074345;28;20387;-55
2022/12/03 04:03:41;;;;;;;;;;;;;;;1.92;100.00;102273.91;5074614;28;20389;-57
2022/12/03 04:06:06;;;;;;;;;;;;;;;1.94;100.00;102274.81;5074375;28;19917;-54
2022/12/03 04:08:31;;;;;;;;;;;;;;;1.98;100.00;102274.06;5074337;28;20003;-55
2022/12/03 04:13:41;;;;;;;;;;;;;;;2.05;100.00;102269.88;5074070;28;19951;-52
2022/12/03 04:16:06;;;;;;;;;;;;;;;2.05;100.00;102265.56;5073912;28;19916;-55
2022/12/03 04:18:43;;;;;;;;;;;;;;;2.07;100.00;102258.69;5074056;28;20260;-57
2022/12/03 04:24:12;;;;;;;;;;;;;;;2.12;100.00;102261.41;5074207;28;20009;-55
2022/12/03 04:29:21;;;;;;;;;;;;;;;2.12;100.00;102262.31;5073819;28;19923;-55
2022/12/03 04:37:14;;;;;;;;;;;;;;;2.21;100.00;102246.94;5058429;28;19919;-57
2022/12/03 04:39:40;;;;;;;;;;;;;;;2.21;100.00;102248.66;5073481;28;19913;-57
2022/12/03 04:42:05;;;;;;;;;;;;;;;2.19;100.00;102247.72;5072960;28;19917;-56
2022/12/03 04:44:37;;;;;;;;;;;;;;;2.19;100.00;102246.00;5073270;28;19919;-54
2022/12/03 04:47:03;;;;;;;;;;;;;;;2.22;100.00;102250.38;5073719;28;20275;-56
2022/12/03 04:49:29;;;;;;;;;;;;;;;2.25;100.00;102237.47;5073537;28;19919;-55
2022/12/03 04:51:54;;;;;;;;;;;;;;;2.24;100.00;102252.22;5073511;28;19912;-55
2022/12/03 04:54:19;;;;;;;;;;;;;;;2.24;100.00;102240.94;5055269;28;20321;-56
2022/12/03 04:56:44;;;;;;;;;;;;;;;2.24;100.00;102236.63;5055092;28;19913;-59
2022/12/03 04:59:10;;;;;;;;;;;;;;;2.26;100.00;102232.34;5072934;28;20003;-55
2022/12/03 05:01:35;;;;;;;;;;;;;;;2.28;100.00;102238.44;5072836;28;19942;-58
2022/12/03 05:04:00;;;;;;;;;;;;;;;2.28;100.00;102233.22;5072993;28;19917;-53
2022/12/03 05:06:26;;;;;;;;;;;;;;;2.28;100.00;102240.16;5055056;28;19916;-57
2022/12/03 05:08:51;;;;;;;;;;;;;;;2.28;100.00;102241.03;5072909;28;20015;-55
2022/12/03 05:11:16;;;;;;;;;;;;;;;2.24;100.00;102236.63;5072939;28;19962;-54
2022/12/03 05:13:41;;;;;;;;;;;;;;;2.31;100.00;102244.56;5072860;28;19931;-55
2022/12/03 05:16:07;;;;;;;;;;;;;;;2.30;100.00;102243.69;5072939;28;20000;-58
2022/12/03 05:18:32;;;;;;;;;;;;;;;2.34;100.00;102235.09;5072700;28;19924;-54
2022/12/03 05:20:57;;;;;;;;;;;;;;;2.34;100.00;102232.50;5072808;28;19969;-58
2022/12/03 05:23:22;;;;;;;;;;;;;;;2.32;100.00;102228.09;5072928;28;19923;-52
2022/12/03 05:25:48;;;;;;;;;;;;;;;2.34;100.00;102234.22;5072748;28;19935;-54
2022/12/03 05:28:13;;;;;;;;;;;;;;;2.34;100.00;102234.22;5072682;28;20015;-58
2022/12/03 05:30:38;;;;;;;;;;;;;;;2.35;100.00;102235.97;5072720;28;20306;-55
2022/12/03 05:33:04;;;;;;;;;;;;;;;2.35;100.00;102229.06;5072769;28;20001;-55
2022/12/03 05:35:29;;;;;;;;;;;;;;;2.37;100.00;102219.56;5072925;28;20007;-56
2022/12/03 05:37:54;;;;;;;;;;;;;;;2.38;100.00;102226.53;5072674;28;20363;-58
2022/12/03 05:40:19;;;;;;;;;;;;;;;2.38;100.00;102223.94;5072709;28;20321;-57
2022/12/03 05:42:55;;;;;;;;;;;;;;;1.94;100.00;102147.59;5054403;28;19912;-57
2022/12/03 05:45:24;;;;;;;;;;;;;;;2.39;100.00;102217.03;5056301;28;19922;-54
2022/12/03 05:47:50;;;;;;;;;;;;;;;2.35;100.00;102217.78;5072494;28;19978;-53
2022/12/03 05:50:16;;;;;;;;;;;;;;;2.37;100.00;102218.69;5054913;28;19908;-55
2022/12/03 05:52:41;;;;;;;;;;;;;;;2.37;100.00;102216.09;5072490;28;20454;-56
2022/12/03 05:55:06;;;;;;;;;;;;;;;2.38;100.00;102217.84;5072701;28;19962;-55
2022/12/03 05:57:32;;;;;;;;;;;;;;;2.39;100.00;102211.84;5038035;28;19927;-56
2022/12/03 05:59:57;;;;;;;;;;;;;;;2.37;100.00;102211.78;5072524;28;19923;-55
2022/12/03 06:02:22;;;;;;;;;;;;;;;2.39;100.00;102212.72;5073579;28;19946;-57
2022/12/03 06:04:48;;;;;;;;;;;;;;;2.40;100.00;102200.56;5072719;28;19919;-56
2022/12/03 06:07:13;;;;;;;;;;;;;;;2.36;100.00;102207.44;5071998;28;20327;-55
2022/12/03 06:09:38;;;;;;;;;;;;;;;2.36;100.00;102204.84;5070549;28;19913;-57
2022/12/03 06:12:05;;;;;;;;;;;;;;;2.37;100.00;102203.97;5070402;28;19917;-53
2022/12/03 06:14:31;;;;;;;;;;;;;;;2.36;100.00;102198.78;5071822;28;19916;-52
2022/12/03 06:16:56;;;;;;;;;;;;;;;2.36;100.00;102198.78;5053337;28;20565;-57
2022/12/03 06:19:21;;;;;;;;;;;;;;;1.99;100.00;102135.56;5072205;28;20342;-54
2022/12/03 06:21:47;;;;;;;;;;;;;;;2.34;100.00;102195.22;5054115;28;19912;-53
2022/12/03 06:24:12;;;;;;;;;;;;;;;2.34;100.00;102196.13;5072276;28;20398;-57
2022/12/03 06:26:37;;;;;;;;;;;;;;;2.35;100.00;102197.00;5072526;28;20127;-57
2022/12/03 06:29:02;;;;;;;;;;;;;;;2.35;100.00;102191.81;5071826;28;19960;-53
2022/12/03 06:31:27;;;;;;;;;;;;;;;2.35;100.00;102189.22;5072089;28;19978;-60
2022/12/03 06:33:53;;;;;;;;;;;;;;;2.32;100.00;102194.34;5071738;28;19920;-61
2022/12/03 06:36:18;;;;;;;;;;;;;;;2.32;100.00;102192.63;5072098;28;19916;-60
2022/12/03 06:38:43;;;;;;;;;;;;;;;2.33;100.00;102189.19;5072100;28;19912;-61
2022/12/03 06:41:08;;;;;;;;;;;;;;;2.33;100.00;102191.78;5071742;28;19919;-60
2022/12/03 06:43:34;;;;;;;;;;;;;;;2.33;100.00;102184.00;5071794;28;19920;-58
2022/12/03 06:45:59;;;;;;;;;;;;;;;2.30;100.00;102183.91;5071712;28;19951;-60
2022/12/03 06:48:24;;;;;;;;;;;;;;;2.33;100.00;102180.50;5071881;28;19912;-60
2022/12/03 06:50:49;;;;;;;;;;;;;;;2.34;100.00;102183.13;5072144;28;19934;-58
2022/12/03 06:53:14;;;;;;;;;;;;;;;2.36;100.00;102183.19;5072221;28;20030;-61
2022/12/03 06:55:40;;;;;;;;;;;;;;;2.34;100.00;102177.94;5071863;28;20396;-60
2022/12/03 06:58:05;;;;;;;;;;;;;;;2.35;100.00;102182.28;5037164;28;20342;-62
2022/12/03 07:00:30;;;;;;;;;;;;;;;2.36;100.00;102185.78;5053548;28;20430;-62
2022/12/03 07:02:55;;;;;;;;;;;;;;;2.35;100.00;102184.91;5071780;28;20178;-63
2022/12/03 07:05:20;;;;;;;;;;;;;;;2.35;100.00;102186.59;5071552;28;19960;-61
2022/12/03 07:07:50;;;;;;;;;;;;;;;2.34;100.00;102197.84;5053766;28;20015;-61
2022/12/03 07:10:16;;;;;;;;;;;;;;;2.32;100.00;102190.03;5053865;28;20298;-57
2022/12/03 07:12:41;;;;;;;;;;;;;;;2.33;100.00;102196.97;5071543;28;19913;-61
2022/12/03 07:15:07;;;;;;;;;;;;;;;2.35;100.00;102203.09;5071227;28;19946;-61
2022/12/03 07:17:32;;;;;;;;;;;;;;;2.31;100.00;102195.19;5071500;28;20497;-61
2022/12/03 07:19:57;;;;;;;;;;;;;;;2.32;100.00;102192.63;5071444;28;20011;-61
2022/12/03 07:22:22;;;;;;;;;;;;;;;2.32;100.00;102195.22;5073273;28;20390;-61
2022/12/03 07:24:48;;;;;;;;;;;;;;;2.33;100.00;102199.59;5074697;28;19920;-62
2022/12/03 07:27:13;;;;;;;;;;;;;;;2.35;100.00;102199.59;5074746;28;19924;-61
2022/12/03 07:29:38;;;;;;;;;;;;;;;2.36;100.00;102202.25;5074681;28;19947;-59
2022/12/03 07:32:03;;;;;;;;;;;;;;;2.38;100.00;102203.16;5074996;28;19913;-62
2022/12/03 07:34:29;;;;;;;;;;;;;;;2.37;100.00;102201.38;5074433;28;19916;-59
2022/12/03 07:36:54;;;;;;;;;;;;;;;2.34;100.00;102200.44;5074829;28;19920;-63
2022/12/03 07:39:19;;;;;;;;;;;;;;;2.36;100.00;102204.84;5074654;28;19912;-60
2022/12/03 07:41:44;;;;;;;;;;;;;;;2.18;100.00;102176.72;5074581;28;20386;-60
2022/12/03 07:44:11;;;;;;;;;;;;;;;2.36;100.00;102197.06;5074438;28;19916;-63
2022/12/03 07:46:36;;;;;;;;;;;;;;;2.34;100.00;102200.44;5074185;28;20427;-60
2022/12/03 07:49:02;;;;;;;;;;;;;;;2.36;100.00;102206.56;5072857;28;19912;-63
2022/12/03 07:51:27;;;;;;;;;;;;;;;2.28;100.00;102206.38;5072943;28;19909;-60
2022/12/03 07:53:52;;;;;;;;;;;;;;;2.30;100.00;102196.91;5055628;28;19919;-60
2022/12/03 07:56:18;;;;;;;;;;;;;;;2.28;100.00;102204.66;5074409;28;19917;-59
2022/12/03 07:58:43;;;;;;;;;;;;;;;2.25;100.00;102201.09;5074314;28;19912;-62
2022/12/03 08:01:09;;;;;;;;;;;;;;;2.30;100.00;102193.44;5073960;28;20305;-63
2022/12/03 08:03:34;;;;;;;;;;;;;;;2.31;100.00;102187.41;5075261;28;19916;-59
2022/12/03 08:05:59;;;;;;;;;;;;;;;2.32;100.00;102197.81;5074216;28;19920;-59
2022/12/03 08:08:24;;;;;;;;;;;;;;;2.35;100.00;102194.41;5074167;28;20389;-63
2022/12/03 08:10:50;;;;;;;;;;;;;;;2.33;100.00;102199.59;5073927;28;20337;-60
2022/12/03 08:13:16;;;;;;;;;;;;;;;2.30;100.00;102203.81;5056095;28;20269;-60
2022/12/03 08:15:41;;;;;;;;;;;;;;;2.31;100.00;102198.66;5055958;28;20325;-60
2022/12/03 08:18:10;;;;;;;;;;;;;;;2.32;100.00;102199.53;5039425;28;19912;-63
2022/12/03 08:20:36;;;;;;;;;;;;;;;2.27;100.00;102207.22;5074072;28;19939;-60
2022/12/03 08:23:03;;;;;;;;;;;;;;;2.26;100.00;102195.97;5055744;28;19992;-63
2022/12/03 08:25:29;;;;;;;;;;;;;;;2.28;100.00;102195.13;5073808;28;19912;-60
2022/12/03 08:27:55;;;;;;;;;;;;;;;2.31;100.00;102197.78;5055655;28;19912;-62
2022/12/03 08:30:21;;;;;;;;;;;;;;;2.31;100.00;102209.03;5075435;28;19935;-56
2022/12/03 08:32:46;;;;;;;;;;;;;;;2.29;100.00;102192.53;5073669;28;19924;-62
2022/12/03 08:35:13;;;;;;;;;;;;;;;2.28;100.00;102194.25;5055336;28;19958;-64
2022/12/03 08:37:38;;;;;;;;;;;;;;;2.31;100.00;102193.44;5073520;28;19912;-58
2022/12/03 08:40:11;;;;;;;;;;;;;;;2.28;100.00;102189.06;5055271;28;19916;-62
2022/12/03 08:42:42;;;;;;;;;;;;;;;2.25;100.00;102186.41;5055735;28;20057;-60
2022/12/03 08:45:26;;;;;;;;;;;;;;;2.27;100.00;102183.84;5073418;28;20012;-62
2022/12/03 08:47:54;;;;;;;;;;;;;;;2.28;100.00;102178.66;5073340;28;19942;-61
2022/12/03 08:50:38;;;;;;;;;;;;;;;2.28;100.00;102180.38;5039563;28;20233;-61
2022/12/03 08:53:12;;;;;;;;;;;;;;;2.26;100.00;102182.09;5073115;28;20428;-59
2022/12/03 08:55:38;;;;;;;;;;;;;;;2.28;100.00;102180.38;5072990;28;20014;-62
2022/12/03 08:58:23;;;;;;;;;;;;;;;2.24;100.00;102188.97;5072996;28;19954;-62
2022/12/03 09:01:04;;;;;;;;;;;;;;;2.28;100.00;102182.97;5058534;28;19946;-59
2022/12/03 09:03:29;;;;;;;;;;;;;;;2.24;100.00;102179.47;5072813;28;20367;-59
2022/12/03 09:05:54;;;;;;;;;;;;;;;2.25;100.00;102181.19;5072976;28;19922;-62
2022/12/03 09:08:19;;;;;;;;;;;;;;;2.20;100.00;102181.94;5038482;28;20006;-60
2022/12/03 09:10:45;;;;;;;;;;;;;;;2.20;100.00;102189.72;5072522;28;19917;-54
2022/12/03 09:13:10;;;;;;;;;;;;;;;2.21;100.00;102189.78;5072580;28;19967;-58
2022/12/03 09:15:35;;;;;;;;;;;;;;;2.15;100.00;102191.34;5072415;28;20003;-60
2022/12/03 09:18:00;;;;;;;;;;;;;;;2.20;100.00;102192.34;5037538;28;19924;-60
2022/12/03 09:20:25;;;;;;;;;;;;;;;2.16;100.00;102177.53;5072624;28;19964;-56
2022/12/03 09:22:51;;;;;;;;;;;;;;;2.23;100.00;102185.50;5054300;28;20058;-59
2022/12/03 09:25:16;;;;;;;;;;;;;;;2.22;100.00;102195.84;5072237;28;20371;-57
2022/12/03 09:27:41;;;;;;;;;;;;;;;2.28;100.00;102186.47;5054285;28;19924;-57
2022/12/03 09:30:07;;;;;;;;;;;;;;;2.25;100.00;102194.19;5072429;28;19920;-56
2022/12/03 09:32:32;;;;;;;;;;;;;;;2.30;100.00;102183.91;5071704;28;20327;-55
2022/12/03 09:34:57;;;;;;;;;;;;;;;2.30;100.00;102188.22;5072411;28;19970;-59
2022/12/03 09:37:22;;;;;;;;;;;;;;;2.35;100.00;102184.91;5072416;28;20294;-58
2022/12/03 09:39:47;;;;;;;;;;;;;;;2.38;100.00;102182.38;5054266;28;19924;-58
2022/12/03 09:42:13;;;;;;;;;;;;;;;2.44;100.00;102185.09;5072154;28;19912;-52
2022/12/03 09:44:38;;;;;;;;;;;;;;;2.46;100.00;102180.81;5071756;28;19916;-54
2022/12/03 09:47:03;;;;;;;;;;;;;;;2.53;100.00;102174.03;5071264;28;19917;-58
2022/12/03 09:49:29;;;;;;;;;;;;;;;2.50;100.00;102192.16;5072200;28;19918;-60
2022/12/03 09:51:55;;;;;;;;;;;;;;;2.52;100.00;102190.44;5053825;28;20290;-59
2022/12/03 09:54:24;;;;;;;;;;;;;;;2.54;100.00;102189.63;5054119;28;19913;-58
2022/12/03 09:56:50;;;;;;;;;;;;;;;2.63;100.00;102183.75;5054002;28;20263;-57
2022/12/03 09:59:15;;;;;;;;;;;;;;;2.64;100.00;102194.19;5053827;28;19948;-57
2022/12/03 10:01:40;;;;;;;;;;;;;;;2.69;100.00;102182.16;5071479;28;20018;-55
2022/12/03 10:04:05;;;;;;;;;;;;;;;2.66;100.00;102189.91;5054035;28;19924;-57
2022/12/03 10:06:31;;;;;;;;;;;;;;;2.61;100.00;102186.34;5053851;28;20263;-60
2022/12/03 10:08:58;;;;;;;;;;;;;;;2.69;100.00;102182.16;5072338;28;20263;-55
2022/12/03 10:11:24;;;;;;;;;;;;;;;2.76;100.00;102181.47;5072279;28;19999;-58
2022/12/03 10:13:49;;;;;;;;;;;;;;;2.73;100.00;102185.72;5037118;28;19995;-57
2022/12/03 10:16:16;;;;;;;;;;;;;;;2.74;100.00;102177.94;5071653;28;19916;-57
2022/12/03 10:18:42;;;;;;;;;;;;;;;2.73;100.00;102178.81;5072604;28;20381;-55
2022/12/03 10:21:16;;;;;;;;;;;;;;;2.76;100.00;102181.47;5053935;28;19916;-54
2022/12/03 10:23:42;;;;;;;;;;;;;;;2.66;100.00;102189.91;5071896;28;19912;-54
2022/12/03 10:26:07;;;;;;;;;;;;;;;2.56;100.00;102187.09;5071416;28;19913;-62
2022/12/03 10:28:38;;;;;;;;;;;;;;;2.61;100.00;102178.53;5053519;28;19958;-58
2022/12/03 10:31:05;;;;;;;;;;;;;;;2.58;100.00;102173.28;5071032;28;19923;-59
2022/12/03 10:33:37;;;;;;;;;;;;;;;2.57;100.00;102173.25;5034605;28;19970;-61
2022/12/03 10:36:16;;;;;;;;;;;;;;;2.55;100.00;102160.22;5051428;28;19916;-62
2022/12/03 10:38:41;;;;;;;;;;;;;;;2.52;100.00;102160.16;5070886;28;19913;-60
2022/12/03 10:41:20;;;;;;;;;;;;;;;2.53;100.00;102153.22;5071270;28;20420;-59
2022/12/03 10:43:45;;;;;;;;;;;;;;;2.47;100.00;102153.97;5053945;28;19954;-61
2022/12/03 10:46:11;;;;;;;;;;;;;;;2.48;100.00;102149.66;5071684;28;20343;-60
2022/12/03 10:48:36;;;;;;;;;;;;;;;2.46;100.00;102148.72;5071679;28;20023;-59
2022/12/03 10:51:08;;;;;;;;;;;;;;;2.43;100.00;102141.75;5053517;28;19919;-61
2022/12/03 10:53:34;;;;;;;;;;;;;;;2.53;100.00;102150.63;5071452;28;19912;-59
2022/12/03 10:56:00;;;;;;;;;;;;;;;2.43;100.00;102139.16;5070309;28;20426;-60
2022/12/03 10:58:26;;;;;;;;;;;;;;;2.42;100.00;102139.13;5056724;28;20413;-60
2022/12/03 11:00:51;;;;;;;;;;;;;;;2.35;100.00;102132.94;5075555;28;19920;-60
2022/12/03 11:03:27;;;;;;;;;;;;;;;2.37;100.00;102122.56;5075208;28;19913;-59
2022/12/03 11:05:52;;;;;;;;;;;;;;;2.24;100.00;102130.09;5039999;28;20492;-61
2022/12/03 11:08:21;;;;;;;;;;;;;;;2.25;100.00;102124.03;5075040;28;19923;-61
2022/12/03 11:10:59;;;;;;;;;;;;;;;2.24;100.00;102122.31;5075003;28;19923;-61
2022/12/03 11:13:26;;;;;;;;;;;;;;;2.22;100.00;102125.69;5076105;28;20007;-61
2022/12/03 11:15:51;;;;;;;;;;;;;;;2.21;100.00;102126.56;5074982;28;19948;-59
2022/12/03 11:18:35;;;;;;;;;;;;;;;2.19;100.00;102108.31;5057414;28;20381;-60
2022/12/03 11:21:07;;;;;;;;;;;;;;;2.19;100.00;102113.53;5074788;28;19916;-61
2022/12/03 11:23:44;;;;;;;;;;;;;;;2.20;100.00;102104.91;5074712;28;20290;-60
2022/12/03 11:26:13;;;;;;;;;;;;;;;2.23;100.00;102104.97;5074970;28;19935;-61
2022/12/03 11:28:44;;;;;;;;;;;;;;;2.19;100.00;102105.72;5056937;28;19948;-58
2022/12/03 11:31:30;;;;;;;;;;;;;;;2.22;100.00;102104.91;5074803;28;19927;-59
2022/12/03 11:34:14;;;;;;;;;;;;;;;2.16;100.00;102100.47;5074472;28;20294;-60
2022/12/03 11:36:59;;;;;;;;;;;;;;;2.15;100.00;102096.13;5074856;28;19917;-61
2022/12/03 11:39:46;;;;;;;;;;;;;;;2.18;100.00;102090.13;5074177;28;20367;-59
2022/12/03 11:42:26;;;;;;;;;;;;;;;2.16;100.00;102100.47;5074799;28;20011;-62
2022/12/03 11:45:12;;;;;;;;;;;;;;;2.18;100.00;102093.59;5074433;28;20337;-60
2022/12/03 11:47:42;;;;;;;;;;;;;;;2.18;100.00;102083.22;5074516;28;19920;-60
2022/12/03 11:50:20;;;;;;;;;;;;;;;2.08;100.00;102093.34;5074244;28;19917;-59
2022/12/03 11:52:46;;;;;;;;;;;;;;;2.12;100.00;102084.78;5074618;28;19913;-62
2022/12/03 11:55:18;;;;;;;;;;;;;;;2.10;100.00;102076.09;5074536;28;20268;-58
2022/12/03 11:57:43;;;;;;;;;;;;;;;2.10;100.00;102082.16;5056292;28;20392;-55
2022/12/03 12:00:19;;;;;;;;;;;;;;;2.15;100.00;102079.66;5074282;28;19920;-57
2022/12/03 12:02:44;;;;;;;;;;;;;;;2.13;100.00;102076.16;5056426;28;20297;-60
2022/12/03 12:05:14;;;;;;;;;;;;;;;2.15;100.00;102077.06;5073825;28;19931;-61
2022/12/03 12:07:39;;;;;;;;;;;;;;;2.15;100.00;102079.66;5073962;28;20361;-56
2022/12/03 12:10:04;;;;;;;;;;;;;;;2.07;100.00;102084.69;5073447;28;19932;-61
2022/12/03 12:12:31;;;;;;;;;;;;;;;2.07;100.00;102063.91;5056020;28;20088;-59
2022/12/03 12:14:56;;;;;;;;;;;;;;;2.04;100.00;102068.19;5073980;28;20286;-59
2022/12/03 12:17:32;;;;;;;;;;;;;;;2.03;100.00;102074.19;5074403;28;20003;-58
2022/12/03 12:20:15;;;;;;;;;;;;;;;2.06;100.00;102066.47;5074231;28;19912;-58
2022/12/03 12:22:41;;;;;;;;;;;;;;;2.02;100.00;102059.44;5074203;28;20290;-60
2022/12/03 12:25:25;;;;;;;;;;;;;;;2.06;100.00;102058.69;5073932;28;19920;-60
2022/12/03 12:27:52;;;;;;;;;;;;;;;2.00;100.00;102053.34;5073932;28;19913;-60
2022/12/03 12:30:18;;;;;;;;;;;;;;;2.03;100.00;102045.63;5073729;28;19921;-60
2022/12/03 12:32:51;;;;;;;;;;;;;;;2.04;100.00;102048.25;5073418;28;19920;-58
2022/12/03 12:35:20;;;;;;;;;;;;;;;2.11;100.00;102041.47;5055777;28;19920;-61
2022/12/03 12:37:49;;;;;;;;;;;;;;;2.14;100.00;102041.53;5073483;28;19924;-62
2022/12/03 12:40:16;;;;;;;;;;;;;;;2.16;100.00;102032.94;5073546;28;19916;-58
2022/12/03 12:42:43;;;;;;;;;;;;;;;2.18;100.00;102038.16;5073475;28;20338;-59
2022/12/03 12:45:11;;;;;;;;;;;;;;;2.22;100.00;102035.66;5073274;28;19916;-59
2022/12/03 12:47:36;;;;;;;;;;;;;;;2.18;100.00;102044.25;5073540;28;19998;-60